Time;durP1;ratioP1;P1;durP2;ratioP2;P2;SDS_P1;SDS_P2;PMS_P1;PMS_P2;Temp;Humidity;BMP_temperature;BMP_pressure;BME280_temperature;BME280_humidity;BME280_pressure;Samples;Min_cycle;Max_cycle;Signal;HPM_P1;HPM_P2
2022/06/02 00:00:21;;;;;;;10.70;4.90;;;;;;;12.77;67.92;100657.75;1737194;81;25796;-62
2022/06/02 00:03:01;;;;;;;9.93;4.78;;;;;;;12.79;67.95;100645.56;1744173;79;99196;-62
2022/06/02 00:05:53;;;;;;;7.12;4.37;;;;;;;12.78;68.00;100641.13;1721373;82;27274;-64
2022/06/02 00:08:35;;;;;;;7.78;4.85;;;;;;;12.77;68.08;100660.91;1756394;80;25731;-64
2022/06/02 00:11:29;;;;;;;6.87;5.17;;;;;;;12.73;68.13;100666.05;1755763;80;98555;-62
2022/06/02 00:14:12;;;;;;;9.43;5.25;;;;;;;12.68;68.23;100667.16;1755218;79;25776;-63
2022/06/02 00:17:17;;;;;;;11.80;4.72;;;;;;;12.66;68.34;100663.68;1763567;79;98601;-63
2022/06/02 00:20:05;;;;;;;6.15;5.03;;;;;;;12.65;68.43;100661.07;1752758;80;26040;-64
2022/06/02 00:22:44;;;;;;;6.20;4.15;;;;;;;12.65;68.51;100667.80;1724014;81;98759;-63
2022/06/02 00:25:36;;;;;;;7.45;4.47;;;;;;;12.62;68.60;100680.92;1735047;81;26196;-63
2022/06/02 00:28:36;;;;;;;6.10;4.10;;;;;;;12.62;68.77;100682.27;1750021;80;98793;-63
2022/06/02 00:31:31;;;;;;;6.05;4.08;;;;;;;12.61;68.85;100689.06;1732330;81;27463;-63
2022/06/02 00:34:14;;;;;;;6.30;4.37;;;;;;;12.64;68.94;100692.47;1721839;81;99076;-63
2022/06/02 00:36:45;;;;;;;5.78;3.90;;;;;;;12.61;68.96;100681.88;1761253;80;26303;-63
2022/06/02 00:39:16;;;;;;;5.17;4.20;;;;;;;12.65;68.99;100680.77;1723257;81;99456;-63
2022/06/02 00:42:06;;;;;;;10.20;4.37;;;;;;;12.67;69.02;100686.06;1752535;80;25778;-63
2022/06/02 00:44:44;;;;;;;5.28;4.53;;;;;;;12.68;69.07;100685.98;1746068;80;27845;-63
2022/06/02 00:47:42;;;;;;;4.65;3.75;;;;;;;12.71;69.13;100688.13;1754002;80;98572;-63
2022/06/02 00:50:47;;;;;;;6.72;4.45;;;;;;;12.71;69.22;100679.58;1753127;79;25872;-65
2022/06/02 00:53:40;;;;;;;7.40;4.12;;;;;;;12.72;69.28;100679.98;1750276;80;98578;-64
2022/06/02 00:59:45;;;;;;;8.20;5.12;;;;;;;12.73;69.41;100680.84;1745110;80;98399;-64
2022/06/02 01:02:11;;;;;;;7.22;4.83;;;;;;;12.70;69.48;100680.53;1743801;80;25872;-63
2022/06/02 01:04:42;;;;;;;6.53;4.95;;;;;;;12.67;69.57;100684.25;1755211;79;98759;-63
2022/06/02 01:07:13;;;;;;;8.55;5.83;;;;;;;12.65;69.63;100678.08;1730723;82;26798;-63
2022/06/02 01:10:02;;;;;;;7.62;5.35;;;;;;;12.65;69.69;100683.45;1741748;80;98933;-62
2022/06/02 01:12:56;;;;;;;8.08;6.03;;;;;;;12.65;69.75;100671.83;1734891;81;27340;-63
2022/06/02 01:15:49;;;;;;;13.32;5.87;;;;;;;12.63;69.80;100675.94;1756947;80;98891;-62
2022/06/02 01:18:30;;;;;;;6.85;5.70;;;;;;;12.60;69.95;100675.23;1743841;79;25833;-63
2022/06/02 01:21:16;;;;;;;7.03;5.75;;;;;;;12.54;69.98;100667.00;1733426;81;26643;-63
2022/06/02 01:24:14;;;;;;;8.50;6.20;;;;;;;12.51;70.07;100676.56;1736825;81;99028;-63
2022/06/02 01:27:15;;;;;;;6.78;5.67;;;;;;;12.46;70.16;100678.62;1713276;81;27462;-63
2022/06/02 01:29:59;;;;;;;10.15;5.70;;;;;;;12.43;70.27;100681.45;1704118;83;98613;-63
2022/06/02 01:32:50;;;;;;;7.25;5.87;;;;;;;12.38;70.34;100687.54;1702645;82;25915;-64
2022/06/02 01:35:40;;;;;;;6.72;5.83;;;;;;;12.31;70.43;100679.39;1705641;82;98712;-63
2022/06/02 01:38:44;;;;;;;8.75;6.30;;;;;;;12.27;70.54;100684.52;1704209;82;25820;-63
2022/06/02 01:41:40;;;;;;;10.13;6.78;;;;;;;12.22;70.65;100678.50;1700683;82;98832;-63
2022/06/02 01:44:38;;;;;;;9.45;6.25;;;;;;;12.20;70.78;100685.77;1702614;82;27221;-63
2022/06/02 01:47:12;;;;;;;9.98;6.53;;;;;;;12.15;70.88;100691.84;1705926;82;98756;-63
2022/06/02 01:49:53;;;;;;;7.75;6.17;;;;;;;12.10;71.00;100697.91;1705199;82;25890;-63
2022/06/02 01:52:39;;;;;;;7.95;6.78;;;;;;;12.07;71.07;100699.41;1704823;83;98742;-62
2022/06/02 01:55:14;;;;;;;10.45;7.25;;;;;;;11.98;71.20;100699.38;1704226;82;27393;-65
2022/06/02 01:57:57;;;;;;;8.85;7.45;;;;;;;11.94;71.36;100702.68;1702725;82;99111;-63
2022/06/02 02:00:28;;;;;;;8.35;7.28;;;;;;;11.91;71.45;100700.61;1671930;84;25971;-64
2022/06/02 02:03:40;;;;;;;10.82;7.60;;;;;;;11.85;71.59;100699.09;1704723;82;25834;-64
2022/06/02 02:06:30;;;;;;;10.80;7.35;;;;;;;11.77;71.76;100705.30;1702136;82;25907;-64
2022/06/02 02:09:38;;;;;;;11.55;7.90;;;;;;;11.66;72.06;100713.83;1697544;83;27439;-63
2022/06/02 02:12:09;;;;;;;9.75;8.40;;;;;;;11.59;72.21;100708.81;1703497;82;98667;-63
2022/06/02 02:15:15;;;;;;;9.83;7.60;;;;;;;11.57;72.28;100709.35;1702490;82;25814;-63
2022/06/02 02:18:04;;;;;;;12.40;9.10;;;;;;;11.57;72.33;100709.35;1688124;82;98713;-63
2022/06/02 02:20:56;;;;;;;11.48;9.00;;;;;;;11.57;72.38;100705.33;1696425;82;25806;-63
2022/06/02 02:23:46;;;;;;;10.55;8.78;;;;;;;11.56;72.46;100708.48;1693028;83;99054;-64
2022/06/02 02:26:32;;;;;;;13.22;7.62;;;;;;;11.55;72.52;100715.27;1692746;82;26373;-63
2022/06/02 02:29:32;;;;;;;11.20;8.15;;;;;;;11.53;72.62;100707.75;1690725;83;99284;-64
2022/06/02 02:32:39;;;;;;;13.13;9.15;;;;;;;11.51;72.73;100715.88;1692238;83;26405;-65
2022/06/02 02:35:22;;;;;;;14.83;9.63;;;;;;;11.52;72.80;100715.41;1691542;83;98942;-63
2022/06/02 02:38:05;;;;;;;14.73;8.85;;;;;;;11.56;72.85;100721.03;1689469;83;27646;-63
2022/06/02 02:40:44;;;;;;;11.35;7.55;;;;;;;11.57;72.89;100725.46;1685850;83;99069;-63
2022/06/02 02:43:38;;;;;;;11.10;8.55;;;;;;;11.57;73.11;100732.17;1693460;83;25928;-63
2022/06/02 02:46:22;;;;;;;9.95;8.30;;;;;;;11.57;73.25;100733.52;1607828;87;99262;-63
2022/06/02 02:49:14;;;;;;;13.25;9.00;;;;;;;11.57;73.43;100730.83;1603818;87;25866;-63
2022/06/02 02:52:12;;;;;;;10.50;7.75;;;;;;;11.57;73.52;100733.52;1669461;83;27637;-64
2022/06/02 02:54:52;;;;;;;11.95;7.72;;;;;;;11.55;73.72;100740.30;1638959;86;26511;-63
2022/06/02 02:57:48;;;;;;;11.08;8.28;;;;;;;11.52;73.87;100747.62;1633628;86;25907;-63
2022/06/02 03:00:22;;;;;;;10.43;7.53;;;;;;;11.53;73.89;100752.05;1674820;84;98901;-65
2022/06/02 03:03:07;;;;;;;9.08;7.12;;;;;;;11.53;73.97;100758.75;1684271;84;25820;-63
2022/06/02 03:05:48;;;;;;;12.60;8.00;;;;;;;11.54;74.04;100767.21;1694247;84;98750;-63
2022/06/02 03:08:51;;;;;;;12.30;8.10;;;;;;;11.54;74.07;100780.63;1691949;83;25971;-63
2022/06/02 03:11:27;;;;;;;9.00;6.22;;;;;;;11.52;74.07;100790.09;1691033;83;99011;-63
2022/06/02 03:14:15;;;;;;;11.30;8.23;;;;;;;11.55;74.29;100780.56;1697829;83;26398;-63
2022/06/02 03:16:42;;;;;;;9.43;6.83;;;;;;;11.57;74.20;100772.44;1694682;83;99091;-63
2022/06/02 03:19:28;;;;;;;10.72;7.37;;;;;;;11.60;74.28;100773.64;1671746;85;28404;-63
2022/06/02 03:22:08;;;;;;;15.72;7.67;;;;;;;11.63;74.33;100774.84;1637252;87;25666;-63
2022/06/02 03:24:49;;;;;;;8.48;6.03;;;;;;;11.65;74.33;100777.86;1692533;84;98875;-63
2022/06/02 03:27:47;;;;;;;9.48;6.95;;;;;;;11.67;74.55;100763.89;1702326;84;25767;-63
2022/06/02 03:30:22;;;;;;;10.90;7.45;;;;;;;11.68;74.50;100753.56;1655645;84;99013;-63
2022/06/02 03:33:10;;;;;;;9.30;6.42;;;;;;;11.72;74.76;100763.69;1702042;84;28515;-63
2022/06/02 03:35:52;;;;;;;8.53;6.65;;;;;;;11.73;74.82;100768.59;1700858;84;98755;-63
2022/06/02 03:38:48;;;;;;;10.05;6.33;;;;;;;11.72;74.92;100771.74;1701354;84;25665;-63
2022/06/02 03:41:55;;;;;;;11.95;6.58;;;;;;;11.71;75.01;100791.48;1616362;85;98988;-63
2022/06/02 03:44:50;;;;;;;9.45;6.58;;;;;;;11.67;75.06;100809.55;1682912;85;25736;-64
2022/06/02 03:47:27;;;;;;;13.78;6.92;;;;;;;11.66;75.11;100836.46;1681806;85;98812;-63
2022/06/02 03:50:28;;;;;;;11.00;7.37;;;;;;;11.65;75.31;100818.61;1681963;85;25641;-63
2022/06/02 03:53:12;;;;;;;21.35;7.78;;;;;;;11.63;75.24;100824.05;1681758;85;99212;-64
2022/06/02 03:56:11;;;;;;;11.97;8.53;;;;;;;11.61;75.32;100813.84;1682383;85;25796;-64
2022/06/02 03:58:50;;;;;;;10.55;8.45;;;;;;;11.60;75.29;100800.02;1675668;85;99056;-63
2022/06/02 04:01:28;;;;;;;11.78;8.30;;;;;;;11.61;75.35;100803.58;1682569;85;29447;-64
2022/06/02 04:04:38;;;;;;;11.15;8.35;;;;;;;11.63;75.31;100808.41;1682804;85;26078;-63
2022/06/02 04:07:31;;;;;;;10.70;6.47;;;;;;;11.64;75.37;100812.37;1681877;85;25751;-63
2022/06/02 04:10:36;;;;;;;14.28;7.85;;;;;;;11.63;75.67;100806.59;1656921;84;25792;-64
2022/06/02 04:13:40;;;;;;;10.82;8.13;;;;;;;11.62;75.72;100811.56;1681799;85;98688;-64
2022/06/02 04:16:41;;;;;;;10.72;7.15;;;;;;;11.64;75.92;100797.59;1683017;85;29605;-63
2022/06/02 04:22:45;;;;;;;12.35;9.28;;;;;;;11.70;75.91;100831.36;1680660;84;25835;-64
2022/06/02 04:25:23;;;;;;;11.45;7.60;;;;;;;11.69;75.99;100822.43;1638547;87;98734;-63
2022/06/02 04:28:13;;;;;;;12.47;8.45;;;;;;;11.70;76.13;100825.98;1677756;84;25965;-63
2022/06/02 04:31:02;;;;;;;10.30;7.00;;;;;;;11.72;76.15;100841.56;1678391;85;98869;-63
2022/06/02 04:33:35;;;;;;;10.98;8.10;;;;;;;11.71;76.41;100846.05;1668630;84;26565;-63
2022/06/02 04:36:18;;;;;;;13.13;8.45;;;;;;;11.70;76.46;100840.75;1670069;84;98968;-63
2022/06/02 04:39:00;;;;;;;19.77;8.23;;;;;;;11.71;76.48;100844.71;1673886;85;25868;-63
2022/06/02 04:42:03;;;;;;;36.38;8.98;;;;;;;11.78;76.51;100856.09;1662408;86;99163;-63
2022/06/02 04:44:53;;;;;;;8.75;6.90;;;;;;;11.79;76.79;100849.77;1691130;84;27470;-63
2022/06/02 04:47:43;;;;;;;9.40;7.15;;;;;;;11.83;76.84;100854.53;1678185;84;98899;-63
2022/06/02 04:50:26;;;;;;;8.78;6.67;;;;;;;11.85;76.82;100858.02;1667191;84;25933;-63
2022/06/02 04:53:19;;;;;;;7.78;6.33;;;;;;;11.85;76.94;100871.45;1688019;84;98941;-63
2022/06/02 04:56:28;;;;;;;9.70;6.53;;;;;;;11.78;77.07;100863.27;1692683;83;25885;-63
2022/06/02 04:59:11;;;;;;;12.10;7.45;;;;;;;11.69;76.99;100876.60;1693556;84;98992;-63
2022/06/02 05:01:51;;;;;;;8.40;6.12;;;;;;;11.64;77.00;100874.12;1693077;83;25822;-65
2022/06/02 05:04:51;;;;;;;9.73;7.25;;;;;;;11.59;77.05;100877.48;1690037;84;25719;-65
2022/06/02 05:08:08;;;;;;;15.40;7.80;;;;;;;11.55;77.01;100879.89;1656548;83;98586;-63
2022/06/02 05:10:49;;;;;;;11.73;7.67;;;;;;;11.49;77.05;100888.21;1691400;83;25699;-63
2022/06/02 05:13:27;;;;;;;8.63;7.72;;;;;;;11.46;76.94;100880.29;1693202;84;98810;-63
2022/06/02 05:16:23;;;;;;;10.20;7.42;;;;;;;11.43;76.91;100875.05;1693527;84;25850;-64
2022/06/02 05:19:18;;;;;;;16.35;7.78;;;;;;;11.45;76.96;100886.59;1693106;83;98878;-63
2022/06/02 05:22:10;;;;;;;11.20;7.25;;;;;;;11.49;76.97;100881.97;1692909;83;26458;-65
2022/06/02 05:25:21;;;;;;;13.18;7.50;;;;;;;11.54;76.95;100886.67;1690144;83;98937;-63
2022/06/02 05:28:18;;;;;;;12.60;7.35;;;;;;;11.58;76.82;100887.81;1693350;83;27477;-63
2022/06/02 05:31:36;;;;;;;12.63;8.15;;;;;;;11.67;76.85;100902.65;1684166;84;98993;-65
2022/06/02 05:34:39;;;;;;;9.08;6.33;;;;;;;11.70;76.97;100901.17;1686795;83;26528;-64
2022/06/02 05:37:27;;;;;;;9.28;7.70;;;;;;;11.77;77.00;100908.48;1694199;83;98855;-63
2022/06/02 05:40:12;;;;;;;8.70;7.25;;;;;;;11.79;77.04;100913.35;1688677;83;25802;-63
2022/06/02 05:43:14;;;;;;;9.23;6.83;;;;;;;11.86;77.01;100914.83;1692904;83;98838;-65
2022/06/02 05:45:51;;;;;;;8.20;6.03;;;;;;;11.98;76.91;100915.16;1692553;83;25965;-64
2022/06/02 05:48:26;;;;;;;9.35;6.50;;;;;;;12.07;76.96;100917.90;1692873;84;98767;-64
2022/06/02 05:51:00;;;;;;;10.08;7.00;;;;;;;12.13;76.99;100918.09;1693000;83;27821;-65
2022/06/02 05:53:31;;;;;;;13.28;5.95;;;;;;;12.19;76.96;100921.37;1691214;83;99112;-63
2022/06/02 05:56:26;;;;;;;7.20;5.92;;;;;;;12.27;76.79;100925.92;1688719;83;27465;-63
2022/06/02 05:59:07;;;;;;;9.00;6.35;;;;;;;12.30;76.55;100932.98;1692828;83;25770;-63
2022/06/02 06:02:07;;;;;;;6.00;5.42;;;;;;;12.33;76.53;100937.74;1692482;83;98551;-64
2022/06/02 06:04:54;;;;;;;7.22;5.47;;;;;;;12.38;76.44;100933.50;1694176;83;25778;-64
2022/06/02 06:07:31;;;;;;;7.85;5.58;;;;;;;12.45;76.25;100928.24;1695181;83;98878;-63
2022/06/02 06:10:15;;;;;;;8.18;5.67;;;;;;;12.44;76.20;100926.97;1691489;83;28112;-63
2022/06/02 06:13:08;;;;;;;10.48;6.40;;;;;;;12.45;76.02;100927.37;1694463;83;98818;-63
2022/06/02 06:16:17;;;;;;;9.05;6.55;;;;;;;12.47;75.96;100925.01;1695940;84;25346;-64
2022/06/02 06:19:16;;;;;;;11.25;6.08;;;;;;;12.52;75.98;100932.39;1690743;83;98760;-64
2022/06/02 06:22:13;;;;;;;7.40;5.67;;;;;;;12.57;75.96;100937.08;1687936;84;25888;-64
2022/06/02 06:25:06;;;;;;;10.72;5.50;;;;;;;12.60;76.00;100932.03;1689689;84;98742;-63
2022/06/02 06:27:59;;;;;;;7.40;5.75;;;;;;;12.61;75.82;100926.58;1691454;83;25907;-63
2022/06/02 06:30:48;;;;;;;7.97;6.50;;;;;;;12.67;75.86;100933.48;1691329;84;98663;-64
2022/06/02 06:33:37;;;;;;;9.25;6.22;;;;;;;12.70;75.74;100938.72;1694493;82;25885;-63
2022/06/02 06:36:35;;;;;;;10.75;6.70;;;;;;;12.74;75.61;100938.09;1686756;83;98745;-65
2022/06/02 06:39:18;;;;;;;9.63;6.00;;;;;;;12.83;75.47;100934.97;1695686;83;27527;-64
2022/06/02 06:42:24;;;;;;;11.80;5.55;;;;;;;12.96;75.41;100935.65;1694133;84;98815;-63
2022/06/02 06:44:55;;;;;;;10.55;7.00;;;;;;;13.06;75.36;100935.17;1687817;83;25856;-64
2022/06/02 06:47:36;;;;;;;7.10;5.45;;;;;;;13.15;75.31;100933.37;1692388;83;99040;-63
2022/06/02 06:50:23;;;;;;;6.60;5.45;;;;;;;13.23;75.17;100933.90;1695692;82;25786;-64
2022/06/02 06:53:06;;;;;;;7.40;5.08;;;;;;;13.32;75.04;100934.31;1699137;83;28048;-63
2022/06/02 06:56:01;;;;;;;14.75;4.67;;;;;;;13.49;75.08;100948.75;1687368;83;98604;-63
2022/06/02 06:58:35;;;;;;;9.98;5.30;;;;;;;13.63;74.84;100954.30;1690885;83;26553;-63
2022/06/02 07:01:55;;;;;;;8.13;4.40;;;;;;;13.72;74.62;100943.53;1691825;83;98920;-64
2022/06/02 07:04:45;;;;;;;7.17;4.45;;;;;;;13.81;74.53;100964.14;1693404;83;26575;-63
2022/06/02 07:07:48;;;;;;;6.60;4.37;;;;;;;13.87;74.34;100946.30;1684325;84;98689;-64
2022/06/02 07:10:20;;;;;;;5.15;4.10;;;;;;;13.92;73.81;100942.89;1689376;84;25806;-63
2022/06/02 07:13:18;;;;;;;8.60;4.45;;;;;;;13.97;73.53;100950.27;1688985;83;98759;-63
2022/06/02 07:16:24;;;;;;;3.92;3.52;;;;;;;13.97;73.37;100941.31;1694158;83;25856;-63
2022/06/02 07:19:14;;;;;;;10.55;4.58;;;;;;;14.02;73.35;100938.37;1660714;84;99032;-64
2022/06/02 07:21:55;;;;;;;19.70;5.15;;;;;;;14.07;73.05;100954.69;1656621;85;27572;-64
2022/06/02 07:24:45;;;;;;;9.75;4.60;;;;;;;14.06;72.80;100950.25;1684509;83;98968;-64
2022/06/02 07:28:02;;;;;;;6.45;3.75;;;;;;;14.12;72.72;100942.32;1694995;84;25876;-64
2022/06/02 07:30:48;;;;;;;7.28;3.58;;;;;;;14.24;72.66;100951.97;1674146;84;98845;-64
2022/06/02 07:33:47;;;;;;;13.88;3.27;;;;;;;14.35;72.22;100959.96;1629364;85;25834;-65
2022/06/02 07:36:48;;;;;;;8.10;3.72;;;;;;;14.38;72.00;100957.97;1668097;83;98925;-64
2022/06/02 07:39:42;;;;;;;3.77;3.45;;;;;;;14.48;71.54;100974.08;1671264;84;25684;-64
2022/06/02 07:42:40;;;;;;;9.65;3.92;;;;;;;14.48;70.71;100961.08;1669803;85;98283;-63
2022/06/02 07:45:40;;;;;;;18.62;4.30;;;;;;;14.51;70.15;100975.27;1667382;85;25840;-63
2022/06/02 07:48:34;;;;;;;9.95;4.35;;;;;;;14.59;69.72;100968.97;1668046;85;99297;-64
2022/06/02 07:51:24;;;;;;;6.62;3.95;;;;;;;14.71;69.50;100966.08;1664685;84;26740;-64
2022/06/02 07:54:11;;;;;;;7.17;3.85;;;;;;;14.76;69.23;100965.83;1666231;84;98822;-64
2022/06/02 07:57:10;;;;;;;5.25;4.20;;;;;;;14.73;68.47;100978.14;1670506;84;25898;-65
2022/06/02 07:59:48;;;;;;;3.80;3.45;;;;;;;14.71;68.19;100966.08;1666145;85;98903;-63
2022/06/02 08:02:35;;;;;;;4.15;3.12;;;;;;;14.83;68.05;100980.23;1673155;84;25700;-63
2022/06/02 08:05:22;;;;;;;4.37;2.95;;;;;;;14.97;67.65;100990.75;1673670;84;27482;-64
2022/06/02 08:08:16;;;;;;;6.03;3.02;;;;;;;15.07;67.35;101001.42;1668446;84;98469;-63
2022/06/02 08:11:02;;;;;;;4.35;2.80;;;;;;;15.09;66.48;100988.70;1674248;85;26545;-63
2022/06/02 08:13:52;;;;;;;3.95;3.10;;;;;;;15.10;65.52;101002.12;1673574;85;99153;-65
2022/06/02 08:16:28;;;;;;;8.30;3.33;;;;;;;15.15;65.06;101008.12;1672658;84;26340;-63
2022/06/02 08:18:59;;;;;;;6.47;3.55;;;;;;;15.25;64.87;100997.20;1668287;84;99119;-64
2022/06/02 08:21:51;;;;;;;8.08;3.60;;;;;;;15.35;65.12;100998.89;1664856;85;25832;-63
2022/06/02 08:24:59;;;;;;;6.80;3.33;;;;;;;15.53;64.67;100996.95;1667380;84;98996;-63
2022/06/02 08:28:01;;;;;;;9.93;3.42;;;;;;;15.64;64.44;101013.41;1669439;85;25771;-65
2022/06/02 08:30:44;;;;;;;13.50;3.55;;;;;;;15.68;64.25;101008.22;1671153;84;98735;-63
2022/06/02 08:33:38;;;;;;;4.78;3.17;;;;;;;15.79;63.75;101017.05;1694979;84;27450;-65
2022/06/02 08:36:29;;;;;;;4.37;3.10;;;;;;;15.84;63.67;101012.24;1692108;82;99318;-64
2022/06/02 08:39:29;;;;;;;3.77;2.83;;;;;;;15.88;62.74;101021.91;1690660;83;25756;-64
2022/06/02 08:42:22;;;;;;;6.12;3.60;;;;;;;15.84;62.26;101025.27;1677325;84;99250;-65
2022/06/02 08:45:28;;;;;;;4.20;2.90;;;;;;;15.91;62.33;101032.06;1697086;84;25807;-64
2022/06/02 08:48:42;;;;;;;6.28;2.98;;;;;;;16.00;61.96;101033.83;1657335;84;99360;-63
2022/06/02 08:51:47;;;;;;;6.87;3.20;;;;;;;16.06;61.52;101037.52;1692644;83;26993;-64
2022/06/02 08:54:44;;;;;;;7.78;3.00;;;;;;;16.02;61.05;101034.61;1688028;83;99151;-64
2022/06/02 08:57:42;;;;;;;3.20;2.83;;;;;;;15.97;61.37;101034.02;1692548;83;25848;-64
2022/06/02 09:00:43;;;;;;;3.27;2.80;;;;;;;15.96;60.97;101045.31;1693470;83;98833;-64
2022/06/02 09:03:31;;;;;;;2.77;2.55;;;;;;;15.79;61.05;101044.95;1669910;85;29540;-64
2022/06/02 09:06:15;;;;;;;7.70;2.52;;;;;;;15.82;61.24;101055.58;1655537;84;99365;-64
2022/06/02 09:09:18;;;;;;;3.80;2.65;;;;;;;15.90;61.45;101049.24;1687476;84;25781;-64
2022/06/02 09:12:15;;;;;;;4.58;2.10;;;;;;;16.00;61.38;101056.81;1661471;85;99192;-63
2022/06/02 09:15:04;;;;;;;2.17;2.00;;;;;;;16.02;60.36;101080.09;1687035;83;25787;-63
2022/06/02 09:17:58;;;;;;;4.65;2.30;;;;;;;15.97;59.45;101055.16;1693770;83;99227;-63
2022/06/02 09:21:04;;;;;;;2.10;1.90;;;;;;;15.97;59.50;101055.16;1692761;83;25909;-64
2022/06/02 09:23:51;;;;;;;6.03;1.98;;;;;;;16.05;59.50;101049.30;1696112;84;99245;-63
2022/06/02 09:26:38;;;;;;;5.17;1.85;;;;;;;16.19;59.09;101055.62;1697748;84;25842;-64
2022/06/02 09:29:18;;;;;;;1.67;1.52;;;;;;;16.24;58.07;101063.45;1694016;83;25743;-63
2022/06/02 09:32:05;;;;;;;3.50;2.10;;;;;;;16.21;58.00;101067.70;1666003;84;99046;-63
2022/06/02 09:35:17;;;;;;;3.08;1.52;;;;;;;16.22;57.98;101062.68;1661306;86;25767;-64
2022/06/02 09:38:15;;;;;;;8.53;2.33;;;;;;;16.44;57.87;101055.48;1663801;85;99206;-64
2022/06/02 09:41:15;;;;;;;1.40;1.30;;;;;;;16.68;57.38;101054.01;1663583;84;26468;-64
2022/06/02 09:43:52;;;;;;;4.90;1.60;;;;;;;16.84;56.22;101062.91;1660976;85;99028;-64
2022/06/02 09:47:00;;;;;;;10.38;2.20;;;;;;;16.87;55.47;101064.56;1659924;86;27515;-64
2022/06/02 09:49:48;;;;;;;10.88;2.02;;;;;;;16.84;54.66;101069.69;1656920;85;98844;-64
2022/06/02 09:52:32;;;;;;;5.87;1.62;;;;;;;16.82;55.12;101069.39;1661597;86;25819;-64
2022/06/02 09:55:19;;;;;;;7.15;1.85;;;;;;;16.92;54.22;101067.84;1648671;85;99165;-66
2022/06/02 09:58:06;;;;;;;3.12;1.80;;;;;;;16.91;54.27;101060.69;1661547;85;25791;-64
2022/06/02 10:00:46;;;;;;;2.37;1.35;;;;;;;17.01;54.27;101072.69;1656351;86;99155;-63
2022/06/02 10:03:32;;;;;;;13.43;2.53;;;;;;;17.00;53.70;101066.02;1661707;86;25893;-63
2022/06/02 10:06:19;;;;;;;7.22;1.47;;;;;;;16.87;53.76;101075.39;1661483;85;98604;-63
2022/06/02 10:09:22;;;;;;;9.03;1.67;;;;;;;16.81;54.09;101083.89;1658730;85;25928;-63
2022/06/02 10:15:34;;;;;;;3.37;1.63;;;;;;;17.01;54.04;101076.75;1660258;86;27497;-64
2022/06/02 10:18:34;;;;;;;2.30;1.45;;;;;;;17.19;53.71;101063.39;1654443;86;99054;-64
2022/06/02 10:21:17;;;;;;;5.22;2.05;;;;;;;17.29;53.27;101066.86;1624809;87;25753;-64
2022/06/02 10:24:27;;;;;;;6.28;1.72;;;;;;;17.31;52.72;101071.70;1660943;86;98917;-63
2022/06/02 10:27:43;;;;;;;4.87;1.85;;;;;;;17.07;52.31;101079.06;1659834;86;26374;-64
2022/06/02 10:30:51;;;;;;;3.95;1.67;;;;;;;16.96;52.80;101082.94;1655295;86;99362;-64
2022/06/02 10:34:01;;;;;;;10.03;1.90;;;;;;;17.12;53.05;101086.91;1693363;83;25813;-64
2022/06/02 10:37:11;;;;;;;2.45;1.30;;;;;;;17.30;52.50;101085.73;1684294;83;98919;-64
2022/06/02 10:40:20;;;;;;;3.62;1.42;;;;;;;17.36;52.51;101079.04;1677991;83;26090;-64
2022/06/02 10:43:13;;;;;;;1.15;1.00;;;;;;;17.42;52.55;101086.77;1685942;84;98773;-64
2022/06/02 10:46:16;;;;;;;4.80;1.10;;;;;;;17.44;51.85;101087.06;1690742;84;27531;-64
2022/06/02 10:49:15;;;;;;;1.25;1.12;;;;;;;17.66;51.84;101078.43;1685934;83;98646;-63
2022/06/02 10:52:30;;;;;;;5.08;1.20;;;;;;;17.78;50.71;101074.03;1683353;83;26403;-63
2022/06/02 10:55:36;;;;;;;1.10;1.10;;;;;;;17.79;49.32;101095.63;1694417;83;98997;-64
2022/06/02 10:58:36;;;;;;;3.92;1.02;;;;;;;17.69;49.18;101090.91;1690127;83;25747;-64
2022/06/02 11:01:20;;;;;;;8.78;1.50;;;;;;;17.69;48.96;101090.43;1692362;83;98661;-63
2022/06/02 11:04:20;;;;;;;3.05;1.40;;;;;;;17.73;49.52;101092.45;1689180;84;25437;-63
2022/06/02 11:07:15;;;;;;;5.97;1.80;;;;;;;17.84;49.60;101100.75;1691220;84;98694;-65
2022/06/02 11:10:13;;;;;;;11.93;1.60;;;;;;;17.93;49.27;101099.27;1690652;84;26274;-64
2022/06/02 11:13:27;;;;;;;2.90;1.60;;;;;;;18.19;49.52;101102.45;1690065;83;98975;-64
2022/06/02 11:16:38;;;;;;;5.60;1.60;;;;;;;18.52;48.88;101107.39;1687017;83;28435;-64
2022/06/02 11:19:26;;;;;;;4.50;1.55;;;;;;;18.47;48.63;101091.90;1685741;83;98771;-64
2022/06/02 11:22:48;;;;;;;8.35;1.60;;;;;;;18.61;48.49;101099.13;1683494;84;26428;-63
2022/06/02 11:25:53;;;;;;;5.95;1.45;;;;;;;18.76;48.37;101094.84;1672953;84;98929;-64
2022/06/02 11:28:54;;;;;;;5.62;1.40;;;;;;;18.99;48.07;101101.86;1669904;84;25988;-63
2022/06/02 11:31:48;;;;;;;7.92;1.60;;;;;;;18.83;47.79;101099.84;1670447;84;98784;-63
2022/06/02 11:34:55;;;;;;;4.83;1.57;;;;;;;18.59;47.82;101101.04;1675809;84;26543;-65
2022/06/02 11:37:49;;;;;;;2.45;1.85;;;;;;;18.50;48.27;101100.70;1694700;82;99170;-64
2022/06/02 11:40:52;;;;;;;3.62;2.12;;;;;;;18.41;46.90;101099.11;1698027;83;25816;-64
2022/06/02 11:43:25;;;;;;;4.12;1.35;;;;;;;18.33;47.62;101092.85;1648392;84;98831;-64
2022/06/02 11:46:11;;;;;;;5.17;1.37;;;;;;;18.43;48.07;101096.67;1698564;83;26618;-64
2022/06/02 11:49:06;;;;;;;1.70;1.60;;;;;;;18.70;48.10;101099.84;1694317;83;98673;-64
2022/06/02 11:52:05;;;;;;;7.90;1.27;;;;;;;18.87;47.48;101095.45;1696799;83;25797;-63
2022/06/02 11:54:49;;;;;;;17.52;1.80;;;;;;;19.01;47.04;101091.75;1694524;83;98717;-63
2022/06/02 11:57:57;;;;;;;5.65;1.40;;;;;;;19.26;46.62;101087.65;1688240;83;25702;-63
2022/06/02 12:00:46;;;;;;;2.12;1.25;;;;;;;19.42;46.31;101083.33;1680125;84;98833;-64
2022/06/02 12:03:32;;;;;;;8.10;1.95;;;;;;;19.53;46.18;101095.67;1701216;83;27209;-64
2022/06/02 12:06:40;;;;;;;2.15;1.57;;;;;;;19.56;46.08;101087.78;1695592;83;98837;-63
2022/06/02 12:09:41;;;;;;;2.77;1.45;;;;;;;19.53;45.44;101084.80;1700869;83;25774;-64
2022/06/02 12:12:41;;;;;;;2.15;1.50;;;;;;;19.19;45.31;101095.00;1694247;84;98866;-64
2022/06/02 12:15:27;;;;;;;2.65;1.20;;;;;;;19.00;45.50;101092.24;1692167;84;27348;-64
2022/06/02 12:18:16;;;;;;;3.55;1.25;;;;;;;18.69;45.13;101088.59;1693095;83;99064;-64
2022/06/02 12:21:23;;;;;;;7.10;1.57;;;;;;;18.69;45.13;101088.59;1694321;83;25894;-64
2022/06/02 12:24:15;;;;;;;3.58;1.32;;;;;;;18.83;45.73;101104.79;1694107;83;98970;-63
2022/06/02 12:27:01;;;;;;;7.40;1.57;;;;;;;19.16;45.34;101092.50;1696252;82;25810;-63
2022/06/02 12:30:10;;;;;;;4.17;1.77;;;;;;;19.23;45.41;101093.80;1694714;83;103927;-63
2022/06/02 12:32:48;;;;;;;2.83;1.27;;;;;;;18.92;44.95;101071.55;1689396;84;25763;-63
2022/06/02 12:35:47;;;;;;;4.33;1.37;;;;;;;19.13;44.83;101102.61;1679007;84;25878;-64
2022/06/02 12:38:44;;;;;;;1.62;1.30;;;;;;;19.10;44.75;101097.39;1675705;84;26421;-63
2022/06/02 12:41:27;;;;;;;1.75;1.25;;;;;;;19.10;44.75;101097.39;1675913;84;25858;-64
2022/06/02 12:44:16;;;;;;;3.10;1.10;;;;;;;19.12;44.48;101106.31;1669768;84;98689;-63
2022/06/02 12:47:07;;;;;;;7.47;1.35;;;;;;;19.01;44.28;101101.27;1671728;84;26356;-65
2022/06/02 12:49:51;;;;;;;;;;;;;;;19.00;44.74;101103.11;1679304;84;98916;-64
2022/06/02 12:52:51;;;;;;;3.22;1.27;;;;;;;19.21;44.31;101101.19;1629958;85;26113;-63
2022/06/02 12:55:58;;;;;;;2.25;1.10;;;;;;;19.27;44.52;101102.11;1669284;83;98699;-64
2022/06/02 12:59:02;;;;;;;8.68;1.75;;;;;;;19.39;44.23;101087.63;1645084;86;27482;-64
2022/06/02 13:01:50;;;;;;;0.82;0.82;;;;;;;19.39;44.23;101087.63;1677726;84;98669;-64
2022/06/02 13:04:46;;;;;;;8.05;1.40;;;;;;;19.44;43.57;101109.42;1661273;84;25788;-64
2022/06/02 13:07:45;;;;;;;7.78;1.40;;;;;;;19.17;42.40;101098.31;1681787;84;98833;-66
2022/06/02 13:10:41;;;;;;;23.62;2.30;;;;;;;19.17;42.40;101098.31;1677971;84;25797;-64
2022/06/02 13:13:27;;;;;;;2.62;1.50;;;;;;;19.06;42.80;101117.61;1682169;84;98994;-64
2022/06/02 13:16:14;;;;;;;5.45;1.47;;;;;;;18.81;43.37;101124.40;1676589;84;25816;-64
2022/06/02 13:19:26;;;;;;;1.25;1.15;;;;;;;18.81;43.37;101124.40;1675075;84;98831;-64
2022/06/02 13:22:17;;;;;;;6.95;1.60;;;;;;;18.94;43.54;101123.92;1676912;84;25911;-64
2022/06/02 13:25:25;;;;;;;9.33;1.40;;;;;;;19.29;43.43;101124.61;1670668;84;98775;-64
2022/06/02 13:28:36;;;;;;;9.53;1.70;;;;;;;19.37;42.06;101138.52;1684257;84;26913;-66